Villa Palmira, Puerto Rico
Current Conditions -  °F | °C
As of 10:53 PM on Monday 26 Jan 2015 (Local Time) from TJNR Reporting Station
Broken Clouds Broken Clouds  
Wind Chill: 77°   Ceiling: 3300
Heat Index: 79°   Visibility: 10mi
Dew Point: 71°   Wind: 3mph
Humidity: 82%   Direction: 160°SSE
Pressure: 30.06"   Gusts: NA
Location:  18.1684°N, 65.7486°W
Report Text: TJNR 270253Z AUTO 16003KT 10SM SCT026 BKN033 25/22 A3006 RMK AO2 SLP178 T02500217 51009 $
Loading
Personal Weather Stations






























Interactive Weather Map New forecast layout! Learn more

10-Day Weather Forecast

Advertisements
Track Severe Weather on mobile